Terminal Aerodrome Forecast
Issued by NWS Charleston, WV

Current Version | Previous Version | Graphics & Text | Print | Product List | Glossary On
Versions: 1 2 3 4 5 6 7 8 9 10 11 12 13 14 15 16 17 18 19 20 21 22 23 24 25 26 27
000
FTUS41 KRLX 150235 AAA
TAFCRW
TAF AMD
KCRW 150235Z 1503/1524 18008KT 6SM -RA BR BKN030
     FM150500 21005KT P6SM OVC015
     FM151200 23010G16KT P6SM OVC015 PROB30 1512/1516 6SM -SHRA BR
      OVC007=

USA.gov is the U.S. government's official web portal to all federal, state and local government web resources and services.